This is the latest recevied weather packets stored in our database for station/object E24MSQ-13. If no packets are shown the sender has not sent any weather packets the latest 10 day(s).
| Time | Temp. | Humidity | Pressure | Rain* | Wind** | Luminosity | Snow |
|---|---|---|---|---|---|---|---|
| 1777974428 | 36.67° C | 51% | 1006 hPa | - | - | 0 W/m² | - |
| 1777973504 | 36.67° C | 51% | 1006 hPa | - | - | 0 W/m² | - |
| 1777972579 | 36.67° C | 50% | 1006 hPa | - | - | 0 W/m² | - |
| 1777971655 | 35.56° C | 53% | 1007 hPa | - | - | 0 W/m² | - |
| 1777970731 | 36.67° C | 51% | 1007 hPa | - | - | 0 W/m² | - |
| 1777969806 | 36.11° C | 51% | 1007 hPa | - | - | 0 W/m² | - |
| 1777968882 | 36.11° C | 51% | 1007 hPa | - | - | 0 W/m² | - |
| 1777967957 | 36.11° C | 51% | 1008 hPa | - | - | 0 W/m² | - |
| 1777967033 | 36.67° C | 50% | 1007 hPa | - | - | 0 W/m² | - |
| 1777966108 | 35° C | 53% | 1008 hPa | - | - | 0 W/m² | - |
| 1777965184 | 35° C | 53% | 1008 hPa | - | - | 0 W/m² | - |
| 1777964260 | 35° C | 55% | 1009 hPa | - | - | 0 W/m² | - |
| 1777963335 | 35.56° C | 55% | 1009 hPa | - | - | 0 W/m² | - |
| 1777962411 | 35.56° C | 54% | 1009 hPa | - | - | 0 W/m² | - |
| 1777961486 | 36.11° C | 53% | 1010 hPa | - | - | 0 W/m² | - |
| 1777960562 | 35.56° C | 53% | 1010 hPa | - | - | 0 W/m² | - |
| 1777959637 | 35.56° C | 53% | 1010 hPa | - | - | 0 W/m² | - |
| 1777958713 | 34.44° C | 57% | 1011 hPa | - | - | 0 W/m² | - |
| 1777957789 | 33.89° C | 58% | 1011 hPa | - | - | 0 W/m² | - |
| 1777956864 | 33.89° C | 57% | 1011 hPa | - | - | 0 W/m² | - |
| 1777955940 | 32.78° C | 59% | 1012 hPa | - | - | 0 W/m² | - |
| 1777955015 | 32.78° C | 60% | 1012 hPa | - | - | 0 W/m² | - |
| 1777954091 | 32.22° C | 62% | 1012 hPa | - | - | 0 W/m² | - |
| 1777953167 | 31.67° C | 65% | 1012 hPa | - | - | 0 W/m² | - |
| 1777952242 | 31.67° C | 65% | 1012 hPa | - | - | 0 W/m² | - |
* Rain since midnight (hover to see other rain measurements)
** Current wind speed in m/s (hover to see current wind gust speed)